Time;durP1;ratioP1;P1;durP2;ratioP2;P2;SDS_P1;SDS_P2;PMS_P1;PMS_P2;Temp;Humidity;BMP_temperature;BMP_pressure;BME280_temperature;BME280_humidity;BME280_pressure;Samples;Min_cycle;Max_cycle;Signal;HPM_P1;HPM_P2
2021/09/16 00:00:16;;;;;;;2.03;1.83;;;;;;;21.02;87.90;96180.41;4976154;28;20166;-59
2021/09/16 00:02:42;;;;;;;1.80;1.70;;;;;;;21.07;87.40;96185.69;4976353;28;20261;-59
2021/09/16 00:05:09;;;;;;;1.63;1.53;;;;;;;21.13;87.35;96187.16;4976162;28;20205;-59
2021/09/16 00:07:34;;;;;;;2.60;2.40;;;;;;;21.19;86.71;96183.31;4976291;28;20216;-59
2021/09/16 00:10:00;;;;;;;2.00;1.90;;;;;;;21.21;87.13;96181.13;4975793;28;20421;-59
2021/09/16 00:12:25;;;;;;;2.50;2.30;;;;;;;21.20;87.38;96182.19;4976040;28;20174;-56
2021/09/16 00:14:51;;;;;;;3.00;1.67;;;;;;;21.19;87.37;96192.13;4975400;28;20198;-56
2021/09/16 00:17:16;;;;;;;2.00;1.67;;;;;;;21.26;87.05;96189.03;4960813;28;20258;-56
2021/09/16 00:19:43;;;;;;;2.23;1.73;;;;;;;21.31;86.59;96194.28;4974198;28;20590;-56
2021/09/16 00:22:08;;;;;;;1.70;1.60;;;;;;;21.34;86.27;96196.38;4974626;28;20178;-56
2021/09/16 00:24:33;;;;;;;2.40;2.20;;;;;;;21.32;86.49;96193.97;4975328;28;20501;-59
2021/09/16 00:26:59;;;;;;;2.30;2.10;;;;;;;21.32;86.45;96203.91;4975842;28;20618;-57
2021/09/16 00:29:24;;;;;;;4.07;2.10;;;;;;;21.29;86.51;96191.13;4975618;28;20178;-56
2021/09/16 00:31:50;;;;;;;3.37;3.17;;;;;;;21.28;86.67;96189.53;4974189;28;20170;-56
2021/09/16 00:34:15;;;;;;;1.63;1.53;;;;;;;21.28;85.77;96200.22;4974722;28;20261;-58
2021/09/16 00:36:41;;;;;;;1.40;1.30;;;;;;;21.29;85.61;96191.13;4975445;28;20221;-59
2021/09/16 00:39:07;;;;;;;1.40;1.30;;;;;;;21.18;85.97;96198.53;4975731;28;20472;-59
2021/09/16 00:41:32;;;;;;;2.90;1.87;;;;;;;21.19;86.20;96199.34;4975470;28;20179;-59
2021/09/16 00:43:58;;;;;;;1.70;1.60;;;;;;;21.15;86.37;96193.00;4975242;28;20181;-59
2021/09/16 00:46:24;;;;;;;1.70;1.57;;;;;;;21.18;86.54;96192.38;4975513;28;20595;-56
2021/09/16 00:48:50;;;;;;;1.70;1.60;;;;;;;21.18;86.04;96193.19;4973659;28;20513;-56
2021/09/16 00:51:16;;;;;;;1.50;1.40;;;;;;;21.17;85.83;96196.16;4975286;28;20173;-59
2021/09/16 00:53:41;;;;;;;1.47;1.40;;;;;;;21.18;85.82;96203.09;4974885;28;20465;-59
2021/09/16 00:56:09;;;;;;;1.50;1.40;;;;;;;21.16;86.24;96206.06;4975152;28;20207;-59
2021/09/16 00:58:39;;;;;;;2.93;1.40;;;;;;;21.17;86.00;96198.84;4975127;28;20186;-59
2021/09/16 01:01:06;;;;;;;1.40;1.30;;;;;;;21.20;84.93;96195.56;4973965;28;20413;-59
2021/09/16 01:03:31;;;;;;;2.00;1.70;;;;;;;21.07;85.51;96207.84;4974647;28;20425;-60
2021/09/16 01:05:57;;;;;;;1.47;1.37;;;;;;;21.05;85.66;96203.88;4975084;28;20437;-55
2021/09/16 01:08:23;;;;;;;1.60;1.50;;;;;;;20.99;86.00;96200.50;4973955;28;20237;-56
2021/09/16 01:10:49;;;;;;;1.43;1.27;;;;;;;21.05;85.61;96206.56;4975097;28;20537;-57
2021/09/16 01:13:16;;;;;;;1.40;1.30;;;;;;;21.07;85.60;96201.72;4973582;28;20457;-56
2021/09/16 01:15:42;;;;;;;1.63;1.47;;;;;;;21.04;85.94;96203.09;4974847;28;20941;-56
2021/09/16 01:18:07;;;;;;;1.40;1.30;;;;;;;21.15;85.62;96201.81;4973312;28;20437;-57
2021/09/16 01:20:33;;;;;;;1.50;1.40;;;;;;;21.11;85.31;96202.69;4973911;28;20896;-61
2021/09/16 01:22:58;;;;;;;2.07;1.87;;;;;;;21.04;85.48;96204.97;4973396;28;20178;-57
2021/09/16 01:25:27;;;;;;;1.40;1.30;;;;;;;20.98;85.77;96201.56;4974878;28;20604;-56
2021/09/16 01:27:54;;;;;;;2.00;1.47;;;;;;;21.03;85.81;96196.16;4974765;28;20625;-56
2021/09/16 01:30:20;;;;;;;1.20;1.10;;;;;;;21.00;85.96;96201.28;4973489;28;20433;-56
2021/09/16 01:32:47;;;;;;;1.67;1.43;;;;;;;21.00;85.97;96199.41;4974036;28;20905;-56
2021/09/16 01:35:13;;;;;;;1.33;1.23;;;;;;;21.06;86.08;96198.25;4974647;28;20244;-59
2021/09/16 01:37:39;;;;;;;1.60;1.30;;;;;;;21.01;86.08;96190.31;4974506;28;20524;-59
2021/09/16 01:40:05;;;;;;;2.97;1.27;;;;;;;21.06;85.76;96192.09;4974796;28;20182;-59
2021/09/16 01:42:30;;;;;;;2.70;1.30;;;;;;;20.90;86.62;96194.25;4972478;28;20707;-59
2021/09/16 01:44:56;;;;;;;1.50;1.40;;;;;;;20.90;86.74;96190.75;4974070;28;20433;-59
2021/09/16 01:47:21;;;;;;;1.70;1.20;;;;;;;20.86;86.85;96187.09;4973331;28;20174;-57
2021/09/16 01:49:47;;;;;;;1.50;1.40;;;;;;;20.74;87.45;96187.59;4974293;28;20664;-56
2021/09/16 01:52:12;;;;;;;1.20;1.10;;;;;;;20.70;87.45;96188.44;4974620;28;20644;-56
2021/09/16 01:54:38;;;;;;;3.40;1.30;;;;;;;20.58;87.99;96185.47;4973838;28;20213;-59
2021/09/16 01:57:03;;;;;;;2.93;1.27;;;;;;;20.63;87.84;96191.50;4974388;28;20213;-57
2021/09/16 01:59:29;;;;;;;1.40;1.30;;;;;;;20.62;87.93;96181.13;4974362;28;20174;-56
2021/09/16 02:01:54;;;;;;;1.77;1.47;;;;;;;20.46;88.71;96181.38;4974475;28;20257;-56
2021/09/16 02:04:19;;;;;;;1.87;1.60;;;;;;;20.54;88.52;96184.44;4973611;28;20174;-57
2021/09/16 02:06:45;;;;;;;1.70;1.60;;;;;;;20.48;88.70;96176.53;4974287;28;20188;-60
2021/09/16 02:09:10;;;;;;;4.77;1.73;;;;;;;20.65;88.04;96172.53;4974440;28;20591;-59
2021/09/16 02:11:36;;;;;;;5.30;2.10;;;;;;;20.63;88.17;96169.34;4974306;28;20178;-59
2021/09/16 02:14:01;;;;;;;1.73;1.63;;;;;;;20.54;88.54;96181.78;4974265;28;20216;-59
2021/09/16 02:16:27;;;;;;;1.33;1.20;;;;;;;20.63;88.23;96174.69;4974268;28;20197;-59
2021/09/16 02:18:52;;;;;;;1.23;1.13;;;;;;;20.56;88.74;96180.41;4970582;28;20581;-56
2021/09/16 02:21:17;;;;;;;1.70;1.60;;;;;;;20.60;88.52;96178.72;4969064;28;20236;-61
2021/09/16 02:23:43;;;;;;;1.57;1.40;;;;;;;20.37;89.61;96174.31;4973899;28;20704;-56
2021/09/16 02:26:08;;;;;;;1.80;1.70;;;;;;;20.37;89.66;96172.44;4974060;28;20261;-56
2021/09/16 02:28:33;;;;;;;1.00;1.00;;;;;;;20.41;89.54;96164.63;4974378;28;20219;-57
2021/09/16 02:30:59;;;;;;;2.80;1.40;;;;;;;20.24;90.70;96167.03;4972950;28;20186;-56
2021/09/16 02:33:24;;;;;;;1.70;1.60;;;;;;;20.34;89.90;96162.34;4956594;28;20257;-56
2021/09/16 02:35:52;;;;;;;2.10;1.53;;;;;;;20.41;89.72;96162.78;4973816;28;20209;-56
2021/09/16 02:38:19;;;;;;;1.73;1.63;;;;;;;20.40;89.92;96161.16;4972622;28;20417;-57
2021/09/16 02:40:45;;;;;;;2.00;1.27;;;;;;;20.38;89.96;96155.31;4973999;28;20468;-56
2021/09/16 02:43:10;;;;;;;1.60;1.50;;;;;;;20.45;89.25;96160.31;4973317;28;20433;-56
2021/09/16 02:45:36;;;;;;;1.63;1.53;;;;;;;20.42;89.16;96158.22;4972804;28;20201;-56
2021/09/16 02:48:01;;;;;;;2.60;1.60;;;;;;;20.40;89.63;96163.84;4974099;28;20573;-60
2021/09/16 02:50:26;;;;;;;1.57;1.30;;;;;;;20.40;89.99;96157.69;4974121;28;20182;-59
2021/09/16 02:52:52;;;;;;;1.60;1.50;;;;;;;20.47;89.64;96160.81;4973690;28;20198;-59
2021/09/16 02:55:18;;;;;;;1.30;1.20;;;;;;;20.56;89.16;96155.59;4977406;28;20272;-56
2021/09/16 02:57:45;;;;;;;1.67;1.57;;;;;;;20.68;88.59;96155.91;4977101;28;20182;-59
2021/09/16 03:00:11;;;;;;;1.73;1.37;;;;;;;20.71;88.46;96152.66;4977560;28;20426;-56
2021/09/16 03:02:36;;;;;;;1.80;1.53;;;;;;;20.69;88.48;96154.81;4976776;28;20444;-59
2021/09/16 03:05:02;;;;;;;2.10;1.90;;;;;;;20.58;88.61;96158.75;4977237;28;20792;-61
2021/09/16 03:07:27;;;;;;;2.90;1.40;;;;;;;20.71;88.34;96156.09;4976086;28;20179;-56
2021/09/16 03:09:53;;;;;;;3.13;1.70;;;;;;;20.67;88.55;96159.66;4977192;28;20253;-56
2021/09/16 03:12:18;;;;;;;3.10;1.60;;;;;;;20.68;88.42;96161.25;4977302;28;20556;-57
2021/09/16 03:14:44;;;;;;;2.10;1.57;;;;;;;20.66;88.68;96150.06;4975375;28;20634;-59
2021/09/16 03:17:09;;;;;;;1.60;1.50;;;;;;;20.68;88.72;96154.03;4977014;28;20700;-57
2021/09/16 03:19:34;;;;;;;1.70;1.60;;;;;;;20.48;89.65;96154.38;4975990;28;20174;-60
2021/09/16 03:22:00;;;;;;;3.60;1.77;;;;;;;20.36;90.08;96146.81;4977047;28;20525;-59
2021/09/16 03:24:25;;;;;;;2.07;1.50;;;;;;;20.47;89.67;96150.13;4976514;28;20174;-59
2021/09/16 03:26:51;;;;;;;4.73;1.90;;;;;;;20.48;89.54;96141.81;4975930;28;20236;-57
2021/09/16 03:29:16;;;;;;;2.00;1.80;;;;;;;20.38;90.00;96136.66;4977017;28;20261;-56
2021/09/16 03:31:41;;;;;;;1.57;1.47;;;;;;;20.16;91.40;96136.47;4976633;28;20181;-57
2021/09/16 03:34:07;;;;;;;2.43;1.53;;;;;;;20.16;91.88;96143.66;4976312;28;20246;-59
2021/09/16 03:36:32;;;;;;;3.20;2.00;;;;;;;20.10;92.60;96152.84;4976470;28;20193;-57
2021/09/16 03:38:58;;;;;;;1.43;1.20;;;;;;;19.99;93.70;96152.19;4976635;28;20201;-56
2021/09/16 03:41:23;;;;;;;4.93;1.83;;;;;;;19.91;94.12;96152.84;4975391;28;20170;-55
2021/09/16 03:43:49;;;;;;;2.40;1.70;;;;;;;20.10;93.62;96150.97;4976287;28;20405;-56
2021/09/16 03:46:14;;;;;;;2.90;1.50;;;;;;;20.10;93.71;96150.97;4976538;28;20190;-59
2021/09/16 03:48:40;;;;;;;1.83;1.57;;;;;;;20.13;93.22;96139.69;4976450;28;20260;-59
2021/09/16 03:51:05;;;;;;;3.73;2.13;;;;;;;20.11;93.45;96141.09;4976625;28;20177;-56
2021/09/16 03:53:30;;;;;;;1.97;1.70;;;;;;;19.84;95.25;96146.31;4976070;28;20198;-56
2021/09/16 03:55:56;;;;;;;2.80;1.90;;;;;;;19.77;95.83;96154.66;4975981;28;20272;-56
2021/09/16 03:58:21;;;;;;;2.00;1.90;;;;;;;19.98;94.96;96153.28;4976374;28;20180;-56
2021/09/16 04:00:46;;;;;;;1.90;1.80;;;;;;;20.07;94.62;96146.22;4976345;28;20178;-56
2021/09/16 04:03:12;;;;;;;2.50;1.87;;;;;;;20.12;94.25;96148.81;4958483;28;20178;-59
2021/09/16 04:05:39;;;;;;;2.77;1.80;;;;;;;19.90;95.55;96153.13;4974332;28;20202;-59
2021/09/16 04:08:05;;;;;;;3.10;2.77;;;;;;;20.11;94.53;96151.75;4958895;28;20184;-59
2021/09/16 04:10:31;;;;;;;2.40;1.90;;;;;;;20.13;94.38;96149.56;4976115;28;20425;-59
2021/09/16 04:12:56;;;;;;;1.57;1.47;;;;;;;20.15;94.33;96145.53;4975609;28;20410;-59
2021/09/16 04:15:22;;;;;;;2.57;1.80;;;;;;;20.04;94.83;96143.31;4975875;28;20436;-56
2021/09/16 04:17:47;;;;;;;2.83;1.60;;;;;;;20.23;94.30;96139.59;4976112;28;20596;-59
2021/09/16 04:20:13;;;;;;;2.87;1.70;;;;;;;20.15;94.72;96137.53;4975890;28;20182;-57
2021/09/16 04:22:39;;;;;;;2.80;2.03;;;;;;;20.13;94.88;96139.69;4975386;28;20193;-59
2021/09/16 04:25:05;;;;;;;4.10;1.80;;;;;;;20.21;94.65;96146.28;4975473;28;20524;-56
2021/09/16 04:27:30;;;;;;;1.70;1.60;;;;;;;20.10;94.74;96148.28;4975678;28;20182;-61
2021/09/16 04:29:55;;;;;;;2.50;2.30;;;;;;;20.07;95.41;96148.09;4975756;28;20913;-60
2021/09/16 04:32:21;;;;;;;1.97;1.70;;;;;;;20.04;95.77;96153.97;4974640;28;20593;-59
2021/09/16 04:34:46;;;;;;;2.10;2.00;;;;;;;19.92;96.40;96158.97;4975071;28;20228;-60
2021/09/16 04:37:12;;;;;;;2.37;1.90;;;;;;;19.95;96.02;96159.19;4975515;28;20185;-57
2021/09/16 04:39:37;;;;;;;2.00;1.80;;;;;;;19.93;96.06;96155.25;4974339;28;20182;-59
2021/09/16 04:42:03;;;;;;;2.33;2.17;;;;;;;19.87;96.50;96159.84;4975442;28;20186;-56
2021/09/16 04:44:29;;;;;;;3.43;2.00;;;;;;;19.86;96.32;96152.91;4974964;28;20174;-56
2021/09/16 04:46:54;;;;;;;2.30;2.10;;;;;;;19.94;96.01;96152.28;4975472;28;20257;-60
2021/09/16 04:49:20;;;;;;;5.43;2.33;;;;;;;19.94;95.94;96157.63;4975315;28;20517;-60
2021/09/16 04:51:46;;;;;;;2.20;1.97;;;;;;;19.76;96.66;96162.94;4975228;28;20180;-59
2021/09/16 04:54:11;;;;;;;2.13;1.90;;;;;;;19.64;97.70;96163.34;4974762;28;20202;-57
2021/09/16 04:56:36;;;;;;;4.30;2.20;;;;;;;19.58;98.13;96155.72;4974870;28;20209;-59
2021/09/16 04:59:02;;;;;;;2.57;2.20;;;;;;;19.70;97.99;96158.75;4975190;28;20174;-57
2021/09/16 05:01:28;;;;;;;2.20;2.07;;;;;;;19.65;98.23;96162.28;4974055;28;20189;-59
2021/09/16 05:03:54;;;;;;;2.77;2.40;;;;;;;19.68;98.67;96156.38;4974867;28;20169;-57
2021/09/16 05:06:19;;;;;;;2.10;1.90;;;;;;;19.52;99.71;96163.00;4974932;28;20557;-57
2021/09/16 05:08:44;;;;;;;2.60;2.17;;;;;;;19.45;100.00;96158.03;4975265;28;20185;-56
2021/09/16 05:11:12;;;;;;;4.73;2.30;;;;;;;19.64;100.00;96155.34;4974582;28;20186;-60
2021/09/16 05:13:37;;;;;;;2.60;2.40;;;;;;;19.70;99.73;96162.22;4974688;28;20320;-56
2021/09/16 05:16:03;;;;;;;2.80;2.60;;;;;;;19.58;100.00;96172.53;4974281;28;20453;-56
2021/09/16 05:18:28;;;;;;;3.30;2.60;;;;;;;19.81;100.00;96169.00;4974356;28;20174;-56
2021/09/16 05:20:54;;;;;;;4.83;2.43;;;;;;;19.70;100.00;96166.75;4974827;28;20178;-59
2021/09/16 05:23:19;;;;;;;4.77;2.50;;;;;;;19.59;100.00;96174.09;4974465;28;20178;-56
2021/09/16 05:25:44;;;;;;;2.60;2.33;;;;;;;19.48;100.00;96174.53;4974728;28;20186;-60
2021/09/16 05:28:10;;;;;;;3.30;3.03;;;;;;;19.26;100.00;96172.34;4973629;28;20181;-62
2021/09/16 05:30:35;;;;;;;3.30;3.00;;;;;;;19.22;100.00;96166.03;4974393;28;20166;-55
2021/09/16 05:33:02;;;;;;;3.70;3.13;;;;;;;19.20;100.00;96179.59;4973146;28;20229;-54
2021/09/16 05:35:27;;;;;;;3.20;2.90;;;;;;;19.44;100.00;96160.97;4973386;28;20668;-53
2021/09/16 05:37:54;;;;;;;4.97;3.10;;;;;;;19.43;100.00;96164.72;4974460;28;20503;-53
2021/09/16 05:40:20;;;;;;;3.77;3.00;;;;;;;19.51;100.00;96161.44;4974949;28;20171;-53
2021/09/16 05:42:45;;;;;;;4.40;2.73;;;;;;;19.78;100.00;96166.13;4974199;28;20422;-53
2021/09/16 05:45:11;;;;;;;3.27;2.90;;;;;;;19.67;100.00;96176.13;4974223;28;20190;-58
2021/09/16 05:47:36;;;;;;;5.23;3.43;;;;;;;19.75;100.00;96178.13;4973187;28;20204;-53
2021/09/16 05:50:02;;;;;;;6.53;2.60;;;;;;;19.80;100.00;96178.06;4974505;28;20600;-58
2021/09/16 05:52:27;;;;;;;4.47;3.00;;;;;;;19.88;100.00;96172.09;4974431;28;20170;-53
2021/09/16 05:54:53;;;;;;;3.47;2.70;;;;;;;19.99;100.00;96180.75;4974145;28;20563;-53
2021/09/16 05:57:18;;;;;;;3.63;3.00;;;;;;;19.97;100.00;96175.69;4974484;28;20249;-59
2021/09/16 05:59:43;;;;;;;5.27;3.30;;;;;;;19.87;100.00;96167.06;4973291;28;20170;-53
2021/09/16 06:02:09;;;;;;;4.70;2.97;;;;;;;20.04;100.00;96178.78;4972821;28;20193;-59
2021/09/16 06:04:35;;;;;;;4.73;2.80;;;;;;;20.08;100.00;96176.34;4973896;28;20170;-59
2021/09/16 06:07:03;;;;;;;4.90;2.83;;;;;;;20.01;100.00;96179.38;4974528;28;20507;-59
2021/09/16 06:09:30;;;;;;;6.20;3.07;;;;;;;20.18;100.00;96177.00;4957508;28;20413;-53
2021/09/16 06:11:56;;;;;;;4.47;3.13;;;;;;;20.22;100.00;96186.03;4974308;28;20961;-59
2021/09/16 06:14:21;;;;;;;4.10;2.90;;;;;;;20.10;100.00;96188.31;4973816;28;20446;-52
2021/09/16 06:16:47;;;;;;;7.83;3.00;;;;;;;20.01;100.00;96187.38;4974170;28;20213;-59
2021/09/16 06:19:12;;;;;;;4.00;2.80;;;;;;;20.23;100.00;96184.94;4974088;28;20170;-59
2021/09/16 06:21:39;;;;;;;5.40;2.80;;;;;;;20.23;100.00;96182.28;4973073;28;20253;-59
2021/09/16 06:24:05;;;;;;;2.90;2.70;;;;;;;20.35;99.76;96182.63;4972620;28;20166;-59
2021/09/16 06:26:30;;;;;;;4.20;2.80;;;;;;;20.40;99.47;96179.06;4974096;28;20429;-53
2021/09/16 06:28:56;;;;;;;2.73;2.50;;;;;;;20.37;99.19;96182.31;4975845;28;20177;-53
2021/09/16 06:31:21;;;;;;;2.67;2.47;;;;;;;20.36;99.77;96181.50;4973927;28;20182;-55
2021/09/16 06:33:46;;;;;;;3.97;2.30;;;;;;;20.33;99.61;96190.13;4973939;28;20787;-53
2021/09/16 06:36:12;;;;;;;5.20;2.40;;;;;;;20.28;100.00;96200.88;4973011;28;20197;-57
2021/09/16 06:38:37;;;;;;;2.50;2.10;;;;;;;20.38;99.85;96200.72;4974140;28;20228;-52
2021/09/16 06:41:03;;;;;;;3.40;2.50;;;;;;;20.41;99.89;96192.13;4974610;28;20170;-59
2021/09/16 06:43:28;;;;;;;2.90;2.40;;;;;;;20.46;99.82;96197.38;4977369;28;20170;-53
2021/09/16 06:45:54;;;;;;;2.43;2.20;;;;;;;20.47;99.56;96196.28;4977311;28;20222;-53
2021/09/16 06:48:19;;;;;;;4.13;2.80;;;;;;;20.49;100.00;96193.31;4977587;28;20221;-56
2021/09/16 06:50:45;;;;;;;5.40;2.43;;;;;;;20.65;99.30;96199.22;4977747;28;20181;-58
2021/09/16 06:53:10;;;;;;;4.60;2.83;;;;;;;20.63;99.60;96202.19;4977076;28;20633;-58
2021/09/16 06:55:35;;;;;;;4.90;2.63;;;;;;;20.55;99.17;96207.38;4977612;28;20221;-58
2021/09/16 06:58:01;;;;;;;4.30;2.57;;;;;;;20.43;99.78;96211.34;4977549;28;20249;-58
2021/09/16 07:00:26;;;;;;;6.53;3.13;;;;;;;20.53;99.68;96202.34;4976934;28;20668;-58
2021/09/16 07:02:51;;;;;;;3.83;2.63;;;;;;;20.64;98.82;96209.09;4976984;28;20178;-59
2021/09/16 07:05:17;;;;;;;2.97;2.50;;;;;;;20.62;99.84;96205.16;4977263;28;20197;-53
2021/09/16 07:07:43;;;;;;;5.30;2.80;;;;;;;20.67;99.20;96207.75;4977177;28;20210;-53
2021/09/16 07:10:08;;;;;;;6.43;2.77;;;;;;;20.62;100.00;96213.94;4975998;28;20178;-58
2021/09/16 07:12:34;;;;;;;3.90;2.50;;;;;;;20.65;100.00;96216.03;4975959;28;20178;-55
2021/09/16 07:15:00;;;;;;;3.47;2.70;;;;;;;20.78;99.66;96217.16;4976560;28;20465;-58
2021/09/16 07:17:25;;;;;;;3.83;2.20;;;;;;;20.83;99.25;96217.06;4976072;28;20229;-58
2021/09/16 07:19:51;;;;;;;4.70;2.60;;;;;;;20.86;99.30;96219.94;4977120;28;20240;-58
2021/09/16 07:22:17;;;;;;;2.87;2.57;;;;;;;20.94;99.29;96224.63;4976999;28;20636;-58
2021/09/16 07:24:43;;;;;;;4.00;3.20;;;;;;;20.94;99.20;96224.63;4976624;28;20210;-53
2021/09/16 07:27:09;;;;;;;6.37;2.80;;;;;;;20.99;99.17;96226.41;4959985;28;20476;-53
2021/09/16 07:29:34;;;;;;;3.60;3.00;;;;;;;21.03;98.91;96227.44;4976261;28;20190;-55
2021/09/16 07:32:00;;;;;;;4.10;3.03;;;;;;;21.02;98.85;96228.50;4976023;28;20232;-58
2021/09/16 07:34:25;;;;;;;3.00;2.70;;;;;;;21.00;98.91;96234.16;4976308;28;20206;-58
2021/09/16 07:36:50;;;;;;;3.40;2.50;;;;;;;21.04;98.58;96237.81;4976677;28;20519;-57
2021/09/16 07:39:18;;;;;;;5.43;2.33;;;;;;;21.06;98.68;96240.19;4976750;28;20213;-54
2021/09/16 07:41:44;;;;;;;4.70;2.00;;;;;;;21.12;98.24;96247.03;4975080;28;20691;-60
2021/09/16 07:44:10;;;;;;;2.73;1.90;;;;;;;21.12;98.08;96247.03;4976011;28;20512;-53
2021/09/16 07:46:35;;;;;;;3.73;2.40;;;;;;;21.02;98.22;96260.56;4976380;28;20205;-54
2021/09/16 07:49:01;;;;;;;2.47;1.80;;;;;;;21.07;98.15;96263.19;4976726;28;20538;-54
2021/09/16 07:51:27;;;;;;;3.93;1.90;;;;;;;21.07;98.07;96261.28;4976637;28;20178;-53
2021/09/16 07:53:53;;;;;;;1.77;1.50;;;;;;;21.04;97.98;96267.22;4976064;28;20198;-54
2021/09/16 07:56:21;;;;;;;1.73;1.63;;;;;;;21.07;97.79;96273.88;4976442;28;20216;-58
2021/09/16 07:58:47;;;;;;;1.40;1.30;;;;;;;21.01;97.50;96272.38;4976116;28;20422;-59
2021/09/16 08:01:12;;;;;;;1.40;1.30;;;;;;;20.97;97.35;96276.66;4976498;28;20416;-58
2021/09/16 08:03:38;;;;;;;1.30;1.20;;;;;;;20.95;97.15;96284.19;4976127;28;20200;-59
2021/09/16 08:06:04;;;;;;;2.00;1.30;;;;;;;20.85;96.56;96282.50;4976191;28;20197;-54
2021/09/16 08:08:30;;;;;;;1.80;1.70;;;;;;;20.87;96.75;96277.63;4976407;28;20609;-58
2021/09/16 08:10:56;;;;;;;2.07;1.70;;;;;;;20.82;97.31;96279.59;4976386;28;20920;-58
2021/09/16 08:13:22;;;;;;;2.00;1.70;;;;;;;20.80;96.91;96287.13;4975497;28;20198;-53
2021/09/16 08:15:47;;;;;;;2.13;2.03;;;;;;;20.56;97.21;96284.56;4975984;28;21018;-58
2021/09/16 08:18:13;;;;;;;2.43;2.23;;;;;;;20.34;97.86;96281.69;4975888;28;20177;-58
2021/09/16 08:20:44;;;;;;;3.10;2.90;;;;;;;20.31;97.89;96284.91;4975890;28;20189;-58
2021/09/16 08:23:10;;;;;;;2.40;1.90;;;;;;;20.23;98.39;96283.69;4974573;28;20265;-53
2021/09/16 08:25:35;;;;;;;1.87;1.77;;;;;;;20.14;99.11;96292.59;4975841;28;20572;-53
2021/09/16 08:28:01;;;;;;;2.90;1.20;;;;;;;20.13;98.95;96291.00;4974369;28;20174;-53
2021/09/16 08:30:27;;;;;;;1.00;1.00;;;;;;;20.16;98.37;96291.25;4974511;28;20178;-57
2021/09/16 08:32:52;;;;;;;1.30;1.30;;;;;;;20.21;98.87;96291.19;4974096;28;20178;-58
2021/09/16 08:35:19;;;;;;;1.47;1.37;;;;;;;20.28;98.38;96291.63;4975672;28;20296;-58
2021/09/16 08:37:45;;;;;;;1.30;1.20;;;;;;;20.36;98.49;96293.63;4975597;28;20197;-53
2021/09/16 08:40:11;;;;;;;1.77;1.20;;;;;;;20.35;98.11;96301.94;4974471;28;20433;-59
2021/09/16 08:42:39;;;;;;;1.00;0.90;;;;;;;20.34;98.13;96303.81;4973694;28;20182;-54
2021/09/16 08:45:07;;;;;;;1.00;0.70;;;;;;;20.36;98.04;96304.31;4975542;28;20190;-58
2021/09/16 08:47:36;;;;;;;1.27;0.70;;;;;;;20.35;98.40;96310.75;4975553;28;20772;-58
2021/09/16 08:50:03;;;;;;;0.50;0.50;;;;;;;20.37;98.05;96310.44;4975614;28;20453;-53
2021/09/16 08:52:29;;;;;;;0.50;0.50;;;;;;;20.41;97.88;96312.28;4975248;28;20425;-53
2021/09/16 08:54:57;;;;;;;0.80;0.60;;;;;;;20.40;97.04;96318.69;4974922;28;21045;-59
2021/09/16 08:57:23;;;;;;;0.90;0.60;;;;;;;20.24;97.23;96319.97;4975022;28;20429;-54
2021/09/16 08:59:49;;;;;;;1.93;0.80;;;;;;;20.31;97.24;96327.59;4976044;28;20410;-58
2021/09/16 09:02:14;;;;;;;0.60;0.60;;;;;;;20.17;97.58;96329.41;4975330;28;20421;-58
2021/09/16 09:04:40;;;;;;;2.13;0.83;;;;;;;20.22;96.77;96327.47;4973505;28;20190;-59
2021/09/16 09:07:06;;;;;;;0.50;0.50;;;;;;;20.22;96.76;96327.47;4975169;28;20549;-53
2021/09/16 09:09:33;;;;;;;0.70;0.70;;;;;;;20.13;96.40;96323.81;4974019;28;20906;-59
2021/09/16 09:12:14;;;;;;;0.90;0.90;;;;;;;20.05;96.21;96326.34;4974632;28;20429;-53
2021/09/16 09:14:46;;;;;;;0.80;0.77;;;;;;;20.15;95.32;96335.00;4974628;28;20460;-58
2021/09/16 09:17:20;;;;;;;2.30;0.80;;;;;;;20.14;96.08;96329.94;4974973;28;20496;-58
2021/09/16 09:19:48;;;;;;;0.90;0.90;;;;;;;20.08;96.34;96331.88;4974718;28;20479;-54
2021/09/16 09:22:13;;;;;;;1.20;1.10;;;;;;;20.12;96.66;96329.44;4974729;28;20432;-59
2021/09/16 09:24:42;;;;;;;1.53;1.13;;;;;;;20.19;96.47;96335.25;4974218;28;20897;-53
2021/09/16 09:27:22;;;;;;;1.00;0.90;;;;;;;20.15;96.16;96340.34;4974969;28;20228;-58
2021/09/16 09:30:09;;;;;;;1.93;0.90;;;;;;;20.16;96.19;96333.94;4974656;28;20417;-53
2021/09/16 09:32:52;;;;;;;1.10;1.10;;;;;;;20.19;96.13;96333.38;4974738;28;20833;-57
2021/09/16 09:35:35;;;;;;;1.20;1.10;;;;;;;20.21;96.09;96339.22;4974624;28;20888;-53
2021/09/16 09:38:18;;;;;;;1.60;1.20;;;;;;;20.25;96.30;96339.44;4973396;28;20429;-58
2021/09/16 09:40:46;;;;;;;3.30;3.00;;;;;;;20.00;96.82;96345.84;4973329;28;20763;-54
2021/09/16 09:43:32;;;;;;;3.93;3.50;;;;;;;19.81;96.83;96353.03;4974412;28;20968;-54
2021/09/16 09:46:17;;;;;;;3.37;3.10;;;;;;;19.89;97.00;96352.38;4974817;28;20439;-54
2021/09/16 09:48:59;;;;;;;3.80;3.40;;;;;;;19.97;96.48;96348.28;4974815;28;20556;-58
2021/09/16 09:51:38;;;;;;;4.13;3.83;;;;;;;20.01;96.27;96354.66;4956834;28;20479;-54
2021/09/16 09:54:21;;;;;;;5.20;4.70;;;;;;;19.90;96.35;96351.31;4974206;28;20465;-58
2021/09/16 09:57:04;;;;;;;5.80;5.30;;;;;;;19.92;96.17;96349.16;4955440;28;20418;-58
2021/09/16 09:59:53;;;;;;;6.70;5.90;;;;;;;19.93;96.27;96352.63;4955474;28;20414;-53
2021/09/16 10:02:20;;;;;;;7.73;7.03;;;;;;;19.98;96.17;96353.38;4955461;28;20413;-54
2021/09/16 10:04:46;;;;;;;9.00;8.10;;;;;;;19.94;96.12;96354.22;4958106;28;20468;-54
2021/09/16 10:07:33;;;;;;;8.70;7.20;;;;;;;19.71;96.41;96344.34;4959167;28;20418;-53
2021/09/16 10:10:01;;;;;;;7.90;7.20;;;;;;;19.68;96.76;96348.34;4968064;28;20452;-53
2021/09/16 10:12:28;;;;;;;8.53;7.83;;;;;;;19.55;95.86;96348.25;4976977;28;20512;-54
2021/09/16 10:14:54;;;;;;;9.40;8.50;;;;;;;19.58;96.51;96345.81;4977527;28;20552;-58
2021/09/16 10:17:19;;;;;;;10.93;9.70;;;;;;;19.46;97.05;96356.03;4977898;28;20410;-54
2021/09/16 10:19:45;;;;;;;13.30;9.73;;;;;;;19.37;97.05;96352.41;4978302;28;20483;-54
2021/09/16 10:22:12;;;;;;;10.77;9.67;;;;;;;19.32;97.86;96360.44;4978252;28;20167;-58
2021/09/16 10:24:37;;;;;;;11.50;10.30;;;;;;;19.29;97.21;96363.66;4977831;28;20221;-59
2021/09/16 10:27:34;;;;;;;12.90;11.47;;;;;;;19.28;97.92;96362.03;4978160;28;20417;-58
2021/09/16 10:30:21;;;;;;;10.00;9.00;;;;;;;19.43;97.30;96353.94;4977949;28;20337;-53
2021/09/16 10:33:03;;;;;;;12.13;10.83;;;;;;;19.52;97.47;96352.25;4977214;28;20425;-54
2021/09/16 10:35:29;;;;;;;10.13;9.13;;;;;;;19.46;98.13;96356.84;4976496;28;20468;-53
2021/09/16 10:37:55;;;;;;;10.83;9.70;;;;;;;19.52;97.41;96351.47;4977724;28;20425;-53
2021/09/16 10:40:29;;;;;;;10.70;9.70;;;;;;;19.60;97.15;96353.53;4977870;28;20425;-57
2021/09/16 10:42:57;;;;;;;11.13;10.00;;;;;;;19.61;97.81;96350.56;4977533;28;20174;-58
2021/09/16 10:45:35;;;;;;;11.20;10.10;;;;;;;19.70;97.70;96353.41;4977619;28;20468;-58
2021/09/16 10:48:12;;;;;;;13.77;11.37;;;;;;;19.69;97.21;96355.28;4977751;28;20408;-53
2021/09/16 10:50:49;;;;;;;13.93;12.53;;;;;;;19.62;96.84;96360.16;4977540;28;20410;-53
2021/09/16 10:53:35;;;;;;;14.53;13.10;;;;;;;19.68;96.15;96372.34;4977217;28;20417;-58
2021/09/16 10:56:05;;;;;;;16.37;14.57;;;;;;;19.48;95.69;96383.22;4977175;28;20456;-58
2021/09/16 10:58:30;;;;;;;15.83;13.87;;;;;;;19.49;95.91;96376.81;4977404;28;20476;-54
2021/09/16 11:00:56;;;;;;;16.03;14.37;;;;;;;19.40;96.27;96370.50;4977338;28;20468;-58
2021/09/16 11:03:22;;;;;;;15.77;14.23;;;;;;;19.53;96.19;96371.72;4976984;28;20181;-58
2021/09/16 11:05:57;;;;;;;17.30;13.80;;;;;;;19.60;95.21;96372.19;4977362;28;20899;-58
2021/09/16 11:08:59;;;;;;;15.80;14.23;;;;;;;19.58;94.97;96371.66;4977251;28;20177;-58
2021/09/16 11:11:24;;;;;;;15.70;13.30;;;;;;;19.63;94.62;96379.63;4976943;28;20432;-58
2021/09/16 11:13:52;;;;;;;13.13;11.63;;;;;;;19.67;94.46;96370.78;4977087;28;20507;-58
2021/09/16 11:16:21;;;;;;;17.17;14.60;;;;;;;19.59;94.15;96374.06;4975469;28;20194;-53
2021/09/16 11:18:47;;;;;;;19.23;15.17;;;;;;;19.37;95.09;96377.19;4977177;28;20759;-53
2021/09/16 11:21:13;;;;;;;16.40;14.57;;;;;;;19.52;94.63;96373.59;4977068;28;20476;-58
2021/09/16 11:23:45;;;;;;;18.33;15.20;;;;;;;19.53;94.75;96372.50;4976568;28;20815;-53
2021/09/16 11:26:21;;;;;;;16.50;14.80;;;;;;;19.35;93.77;96378.53;4976858;28;20201;-53
2021/09/16 11:29:02;;;;;;;19.53;15.10;;;;;;;19.50;94.22;96383.75;4977032;28;20406;-53
2021/09/16 11:31:28;;;;;;;17.10;14.23;;;;;;;19.58;94.56;96388.47;4976622;28;20436;-58